Bookmark and Share
Track history (hours):
 

City Of Cleveland

More information available from US FCC via Universal Licensing System and Coast Guard Vessel Documentation Center.

Last reported at 2014-Apr-23 13:31 UTC. Time now 2014-Apr-23 19:06 UTC.
Position N 29°59' W 090°49'.

Length 42 m; draft 12.5 m.

Type: Towing. MMSI: 366991810.

NotesDate/timePositionNaut miles runAvg speedWind from/ knotsBaromVisibWave heightAir tempDewpointWater temp
2014-Apr-23 13:31N 29°59' W 090°49'4 4.1
2014-Apr-23 12:31N 30°01' W 090°45'6 1.2
2014-Apr-23 07:21N 30°02' W 090°38'3 3.2
2014-Apr-23 06:33N 30°03' W 090°35'3 3.1
2014-Apr-23 05:33N 30°03' W 090°32'0 0.1
2014-Apr-23 04:33N 30°03' W 090°31'1 1.1
2014-Apr-23 03:33N 30°03' W 090°30'3 2.5
2014-Apr-23 02:32N 30°01' W 090°28'3 0.8
2014-Apr-22 22:33N 29°60' W 090°25'13 1.4
2014-Apr-22 13:17N 29°56' W 090°11'7 0.5
2014-Apr-21 22:31N 29°57' W 090°18'3 0.3
2014-Apr-21 12:26N 29°56' W 090°22'0 0.0
2014-Apr-21 11:32N 29°56' W 090°22'2 0.6
2014-Apr-21 08:33N 29°57' W 090°23'3 3.4
2014-Apr-21 07:33N 29°60' W 090°25'0 0.0
2014-Apr-21 06:33N 29°60' W 090°25'0 0.0
2014-Apr-21 05:33N 29°60' W 090°25'5 4.7
2014-Apr-21 04:33N 30°03' W 090°29'7 6.7
2014-Apr-21 03:33N 30°02' W 090°37'5 5.4
2014-Apr-21 02:33N 30°01' W 090°43'4 4.1
2014-Apr-21 01:33N 30°00' W 090°48'3 2.9
2014-Apr-21 00:32N 30°02' W 090°50'  
2014-Apr-13 20:33N 30°01' W 090°46'  

Dump ship's entire track history

sailing weather and tide predictions

City Of Cleveland — WDC2358 — position and weather